sensor_id;sensor_type;location;lat;lon;timestamp;pressure;altitude;pressure_sealevel;temperature;humidity
40946;BME280;55635;50.264;11.918;2024-01-15T00:01:04;94148.53;;;-1.13;93.98
40946;BME280;55635;50.264;11.918;2024-01-15T00:03:46;94144.72;;;-1.44;95.66
40946;BME280;55635;50.264;11.918;2024-01-15T00:06:27;94134.88;;;-1.15;95.85
40946;BME280;55635;50.264;11.918;2024-01-15T00:09:09;94111.03;;;-1.72;96.86
40946;BME280;55635;50.264;11.918;2024-01-15T00:11:51;94098.06;;;-1.72;97.28
40946;BME280;55635;50.264;11.918;2024-01-15T00:14:32;94100.41;;;-1.60;96.49
40946;BME280;55635;50.264;11.918;2024-01-15T00:17:13;94112.19;;;-1.31;96.19
40946;BME280;55635;50.264;11.918;2024-01-15T00:19:54;94115.84;;;-0.98;94.35
40946;BME280;55635;50.264;11.918;2024-01-15T00:22:35;94100.69;;;-1.02;93.07
40946;BME280;55635;50.264;11.918;2024-01-15T00:25:16;94117.69;;;-0.82;92.20
40946;BME280;55635;50.264;11.918;2024-01-15T00:27:58;94105.16;;;-1.13;92.09
40946;BME280;55635;50.264;11.918;2024-01-15T00:30:40;94096.66;;;-1.23;93.24
40946;BME280;55635;50.264;11.918;2024-01-15T00:33:21;94110.69;;;-1.33;93.63
40946;BME280;55635;50.264;11.918;2024-01-15T00:36:02;94105.06;;;-1.29;93.69
40946;BME280;55635;50.264;11.918;2024-01-15T00:38:44;94090.75;;;-1.68;93.83
40946;BME280;55635;50.264;11.918;2024-01-15T00:41:25;94088.31;;;-1.70;95.41
40946;BME280;55635;50.264;11.918;2024-01-15T00:44:08;94096.16;;;-1.61;94.93
40946;BME280;55635;50.264;11.918;2024-01-15T00:46:49;94103.06;;;-1.35;93.96
40946;BME280;55635;50.264;11.918;2024-01-15T00:49:30;94104.06;;;-1.53;93.96
40946;BME280;55635;50.264;11.918;2024-01-15T00:52:11;94096.75;;;-1.32;93.60
40946;BME280;55635;50.264;11.918;2024-01-15T00:54:52;94091.63;;;-1.42;93.44
40946;BME280;55635;50.264;11.918;2024-01-15T00:57:33;94092.09;;;-1.82;94.04
40946;BME280;55635;50.264;11.918;2024-01-15T01:00:15;94090.25;;;-1.54;95.11
40946;BME280;55635;50.264;11.918;2024-01-15T01:02:56;94101.97;;;-1.50;93.79
40946;BME280;55635;50.264;11.918;2024-01-15T01:05:38;94102.25;;;-1.35;93.64
40946;BME280;55635;50.264;11.918;2024-01-15T01:08:19;94098.47;;;-1.76;95.35
40946;BME280;55635;50.264;11.918;2024-01-15T01:11:00;94091.81;;;-1.79;95.87
40946;BME280;55635;50.264;11.918;2024-01-15T01:13:42;94098.78;;;-1.97;95.82
40946;BME280;55635;50.264;11.918;2024-01-15T01:16:22;94062.63;;;-2.26;97.40
40946;BME280;55635;50.264;11.918;2024-01-15T01:19:05;94079.38;;;-2.20;97.52
40946;BME280;55635;50.264;11.918;2024-01-15T01:21:46;94081.78;;;-2.09;96.62
40946;BME280;55635;50.264;11.918;2024-01-15T01:24:27;94075.06;;;-2.29;97.21
40946;BME280;55635;50.264;11.918;2024-01-15T01:27:08;94080.38;;;-2.21;97.54
40946;BME280;55635;50.264;11.918;2024-01-15T01:29:49;94095.41;;;-2.25;96.86
40946;BME280;55635;50.264;11.918;2024-01-15T01:32:30;94101.25;;;-1.78;95.47
40946;BME280;55635;50.264;11.918;2024-01-15T01:35:14;94117.25;;;-1.65;93.07
40946;BME280;55635;50.264;11.918;2024-01-15T01:37:55;94127.34;;;-1.26;91.13
40946;BME280;55635;50.264;11.918;2024-01-15T01:40:37;94116.19;;;-1.36;90.70
40946;BME280;55635;50.264;11.918;2024-01-15T01:43:18;94096.72;;;-1.76;92.51
40946;BME280;55635;50.264;11.918;2024-01-15T01:46:00;94085.34;;;-1.92;94.12
40946;BME280;55635;50.264;11.918;2024-01-15T01:48:44;94087.88;;;-2.00;94.09
40946;BME280;55635;50.264;11.918;2024-01-15T01:51:25;94077.38;;;-2.26;95.35
40946;BME280;55635;50.264;11.918;2024-01-15T01:54:07;94076.09;;;-2.40;96.05
40946;BME280;55635;50.264;11.918;2024-01-15T01:56:51;94074.88;;;-2.36;96.35
40946;BME280;55635;50.264;11.918;2024-01-15T01:59:34;94080.66;;;-2.24;95.83
40946;BME280;55635;50.264;11.918;2024-01-15T02:02:19;94074.13;;;-2.28;95.60
40946;BME280;55635;50.264;11.918;2024-01-15T02:05:01;94074.13;;;-2.28;96.09
40946;BME280;55635;50.264;11.918;2024-01-15T02:07:44;94069.88;;;-2.29;96.04
40946;BME280;55635;50.264;11.918;2024-01-15T02:10:26;94067.00;;;-2.26;96.09
40946;BME280;55635;50.264;11.918;2024-01-15T02:13:07;94051.81;;;-2.21;95.53
40946;BME280;55635;50.264;11.918;2024-01-15T02:15:48;94060.63;;;-2.32;96.37
40946;BME280;55635;50.264;11.918;2024-01-15T02:18:29;94062.38;;;-2.05;94.81
40946;BME280;55635;50.264;11.918;2024-01-15T02:21:20;94051.88;;;-2.31;94.54
40946;BME280;55635;50.264;11.918;2024-01-15T02:24:01;94062.72;;;-2.00;93.94
40946;BME280;55635;50.264;11.918;2024-01-15T02:26:43;94079.84;;;-1.89;93.99
40946;BME280;55635;50.264;11.918;2024-01-15T02:29:24;94086.75;;;-1.80;93.01
40946;BME280;55635;50.264;11.918;2024-01-15T02:32:06;94090.94;;;-1.87;92.93
40946;BME280;55635;50.264;11.918;2024-01-15T02:34:47;94090.56;;;-1.75;92.74
40946;BME280;55635;50.264;11.918;2024-01-15T02:37:28;94080.31;;;-1.94;92.56
40946;BME280;55635;50.264;11.918;2024-01-15T02:40:10;94074.22;;;-1.85;92.93
40946;BME280;55635;50.264;11.918;2024-01-15T02:42:51;94073.53;;;-2.04;92.84
40946;BME280;55635;50.264;11.918;2024-01-15T02:45:32;94071.53;;;-2.10;93.37
40946;BME280;55635;50.264;11.918;2024-01-15T02:48:13;94055.91;;;-2.18;94.15
40946;BME280;55635;50.264;11.918;2024-01-15T02:50:55;94060.09;;;-2.35;94.45
40946;BME280;55635;50.264;11.918;2024-01-15T02:53:36;94062.78;;;-1.92;93.03
40946;BME280;55635;50.264;11.918;2024-01-15T02:56:18;94090.16;;;-1.97;92.69
40946;BME280;55635;50.264;11.918;2024-01-15T02:58:59;94083.34;;;-1.98;92.66
40946;BME280;55635;50.264;11.918;2024-01-15T03:01:41;94092.09;;;-1.82;92.33
40946;BME280;55635;50.264;11.918;2024-01-15T03:04:22;94091.22;;;-1.90;92.75
40946;BME280;55635;50.264;11.918;2024-01-15T03:07:03;94090.41;;;-1.91;92.88
40946;BME280;55635;50.264;11.918;2024-01-15T03:09:44;94092.34;;;-1.93;92.95
40946;BME280;55635;50.264;11.918;2024-01-15T03:12:25;94103.38;;;-1.91;93.03
40946;BME280;55635;50.264;11.918;2024-01-15T03:15:06;94098.63;;;-1.95;92.23
40946;BME280;55635;50.264;11.918;2024-01-15T03:17:48;94115.72;;;-1.93;93.33
40946;BME280;55635;50.264;11.918;2024-01-15T03:20:28;94115.03;;;-1.95;92.99
40946;BME280;55635;50.264;11.918;2024-01-15T03:23:10;94099.06;;;-2.00;92.86
40946;BME280;55635;50.264;11.918;2024-01-15T03:25:51;94091.34;;;-2.09;93.32
40946;BME280;55635;50.264;11.918;2024-01-15T03:28:32;94090.75;;;-2.03;93.55
40946;BME280;55635;50.264;11.918;2024-01-15T03:31:13;94088.81;;;-2.01;93.52
40946;BME280;55635;50.264;11.918;2024-01-15T03:33:55;94093.88;;;-1.82;92.87
40946;BME280;55635;50.264;11.918;2024-01-15T03:36:36;94080.97;;;-2.09;93.93
40946;BME280;55635;50.264;11.918;2024-01-15T03:39:17;94083.78;;;-1.85;93.54
40946;BME280;55635;50.264;11.918;2024-01-15T03:41:58;94074.22;;;-1.85;93.26
40946;BME280;55635;50.264;11.918;2024-01-15T03:44:39;94064.38;;;-1.99;93.26
40946;BME280;55635;50.264;11.918;2024-01-15T03:47:20;94071.41;;;-2.09;93.87
40946;BME280;55635;50.264;11.918;2024-01-15T03:50:01;94078.31;;;-2.00;94.29
40946;BME280;55635;50.264;11.918;2024-01-15T03:52:42;94090.41;;;-1.91;93.66
40946;BME280;55635;50.264;11.918;2024-01-15T03:55:24;94087.75;;;-1.99;93.76
40946;BME280;55635;50.264;11.918;2024-01-15T03:58:05;94091.59;;;-2.03;93.95
40946;BME280;55635;50.264;11.918;2024-01-15T04:00:46;94074.16;;;-1.93;93.39
40946;BME280;55635;50.264;11.918;2024-01-15T04:03:27;94067.81;;;-2.08;94.00
40946;BME280;55635;50.264;11.918;2024-01-15T04:06:09;94064.22;;;-2.15;94.56
40946;BME280;55635;50.264;11.918;2024-01-15T04:08:50;94054.31;;;-2.29;95.35
40946;BME280;55635;50.264;11.918;2024-01-15T04:11:31;94048.03;;;-2.27;95.19
40946;BME280;55635;50.264;11.918;2024-01-15T04:14:12;94067.38;;;-2.21;94.58
40946;BME280;55635;50.264;11.918;2024-01-15T04:16:53;94057.66;;;-2.01;93.86
40946;BME280;55635;50.264;11.918;2024-01-15T04:19:34;94067.97;;;-1.92;92.96
40946;BME280;55635;50.264;11.918;2024-01-15T04:22:16;94068.66;;;-1.72;92.01
40946;BME280;55635;50.264;11.918;2024-01-15T04:24:57;94054.34;;;-1.94;93.02
40946;BME280;55635;50.264;11.918;2024-01-15T04:27:38;94071.09;;;-2.06;93.99
40946;BME280;55635;50.264;11.918;2024-01-15T04:30:20;94063.75;;;-2.10;93.95
40946;BME280;55635;50.264;11.918;2024-01-15T04:33:01;94071.56;;;-1.93;93.28
40946;BME280;55635;50.264;11.918;2024-01-15T04:35:42;94070.44;;;-1.90;93.11
40946;BME280;55635;50.264;11.918;2024-01-15T04:38:23;94072.34;;;-1.92;93.10
40946;BME280;55635;50.264;11.918;2024-01-15T04:41:04;94078.16;;;-1.81;93.11
40946;BME280;55635;50.264;11.918;2024-01-15T04:43:46;94090.56;;;-1.75;92.96
40946;BME280;55635;50.264;11.918;2024-01-15T04:46:27;94071.03;;;-1.79;92.19
40946;BME280;55635;50.264;11.918;2024-01-15T04:49:08;94071.59;;;-1.49;91.50
40946;BME280;55635;50.264;11.918;2024-01-15T04:51:49;94070.13;;;-1.70;91.92
40946;BME280;55635;50.264;11.918;2024-01-15T04:54:30;94086.31;;;-1.58;91.67
40946;BME280;55635;50.264;11.918;2024-01-15T04:57:11;94083.19;;;-1.61;91.91
40946;BME280;55635;50.264;11.918;2024-01-15T04:59:52;94077.56;;;-1.31;90.66
40946;BME280;55635;50.264;11.918;2024-01-15T05:02:33;94079.72;;;-1.27;90.00
40946;BME280;55635;50.264;11.918;2024-01-15T05:05:14;94078.38;;;-1.31;90.12
40946;BME280;55635;50.264;11.918;2024-01-15T05:07:55;94079.75;;;-1.44;90.98
40946;BME280;55635;50.264;11.918;2024-01-15T05:10:37;94051.00;;;-1.86;92.23
40946;BME280;55635;50.264;11.918;2024-01-15T05:13:18;94058.19;;;-1.62;92.19
40946;BME280;55635;50.264;11.918;2024-01-15T05:15:59;94038.31;;;-1.72;92.02
40946;BME280;55635;50.264;11.918;2024-01-15T05:18:40;94039.22;;;-1.81;93.32
40946;BME280;55635;50.264;11.918;2024-01-15T05:21:21;94049.72;;;-1.65;92.62
40946;BME280;55635;50.264;11.918;2024-01-15T05:24:02;94035.81;;;-1.55;91.64
40946;BME280;55635;50.264;11.918;2024-01-15T05:26:43;94049.66;;;-1.29;91.05
40946;BME280;55635;50.264;11.918;2024-01-15T05:29:25;94047.97;;;-1.38;91.48
40946;BME280;55635;50.264;11.918;2024-01-15T05:32:05;94054.19;;;-1.31;91.12
40946;BME280;55635;50.264;11.918;2024-01-15T05:34:47;94058.94;;;-1.27;90.75
40946;BME280;55635;50.264;11.918;2024-01-15T05:37:28;94059.69;;;-1.34;90.63
40946;BME280;55635;50.264;11.918;2024-01-15T05:40:10;94054.34;;;-1.33;89.96
40946;BME280;55635;50.264;11.918;2024-01-15T05:42:51;94052.13;;;-1.45;90.73
40946;BME280;55635;50.264;11.918;2024-01-15T05:45:33;94072.75;;;-1.26;90.18
40946;BME280;55635;50.264;11.918;2024-01-15T05:48:15;94071.66;;;-1.16;88.96
40946;BME280;55635;50.264;11.918;2024-01-15T05:50:56;94079.97;;;-1.38;88.98
40946;BME280;55635;50.264;11.918;2024-01-15T05:53:37;94091.72;;;-1.08;88.51
40946;BME280;55635;50.264;11.918;2024-01-15T05:56:21;94090.34;;;-1.20;88.52
40946;BME280;55635;50.264;11.918;2024-01-15T05:59:02;94075.34;;;-1.26;88.33
40946;BME280;55635;50.264;11.918;2024-01-15T06:01:43;94086.25;;;-1.23;88.90
40946;BME280;55635;50.264;11.918;2024-01-15T06:04:24;94074.00;;;-1.30;88.33
40946;BME280;55635;50.264;11.918;2024-01-15T06:07:05;94075.31;;;-1.52;90.16
40946;BME280;55635;50.264;11.918;2024-01-15T06:09:46;94063.50;;;-1.46;90.44
40946;BME280;55635;50.264;11.918;2024-01-15T06:12:28;94059.31;;;-1.39;90.07
40946;BME280;55635;50.264;11.918;2024-01-15T06:15:09;94048.88;;;-1.65;91.28
40946;BME280;55635;50.264;11.918;2024-01-15T06:17:50;94042.00;;;-1.56;91.40
40946;BME280;55635;50.264;11.918;2024-01-15T06:20:31;94042.00;;;-1.74;91.93
40946;BME280;55635;50.264;11.918;2024-01-15T06:23:12;94027.78;;;-1.88;92.68
40946;BME280;55635;50.264;11.918;2024-01-15T06:25:53;94017.41;;;-1.88;92.95
40946;BME280;55635;50.264;11.918;2024-01-15T06:28:35;94043.31;;;-1.52;91.52
40946;BME280;55635;50.264;11.918;2024-01-15T06:31:16;94046.47;;;-1.67;91.99
40946;BME280;55635;50.264;11.918;2024-01-15T06:33:58;94044.00;;;-1.68;92.37
40946;BME280;55635;50.264;11.918;2024-01-15T06:36:39;94044.13;;;-1.52;92.29
40946;BME280;55635;50.264;11.918;2024-01-15T06:39:20;94037.25;;;-1.61;91.97
40946;BME280;55635;50.264;11.918;2024-01-15T06:42:02;94044.50;;;-1.47;92.52
40946;BME280;55635;50.264;11.918;2024-01-15T06:44:43;94037.72;;;-1.66;92.54
40946;BME280;55635;50.264;11.918;2024-01-15T06:47:24;94033.00;;;-1.44;92.72
40946;BME280;55635;50.264;11.918;2024-01-15T06:50:06;94038.84;;;-1.42;92.45
40946;BME280;55635;50.264;11.918;2024-01-15T06:52:48;94046.81;;;-1.61;93.24
40946;BME280;55635;50.264;11.918;2024-01-15T06:55:28;94036.72;;;-1.47;92.56
40946;BME280;55635;50.264;11.918;2024-01-15T06:58:10;94046.75;;;-1.70;94.46
40946;BME280;55635;50.264;11.918;2024-01-15T07:00:50;94029.41;;;-1.69;94.86
40946;BME280;55635;50.264;11.918;2024-01-15T07:03:31;94038.59;;;-1.57;94.35
40946;BME280;55635;50.264;11.918;2024-01-15T07:06:13;94047.91;;;-1.46;93.77
40946;BME280;55635;50.264;11.918;2024-01-15T07:08:54;94065.34;;;-1.13;92.24
40946;BME280;55635;50.264;11.918;2024-01-15T07:11:35;94053.81;;;-1.36;93.16
40946;BME280;55635;50.264;11.918;2024-01-15T07:14:16;94039.16;;;-1.45;93.66
40946;BME280;55635;50.264;11.918;2024-01-15T07:16:57;94047.97;;;-1.38;94.00
40946;BME280;55635;50.264;11.918;2024-01-15T07:19:38;94055.16;;;-1.32;93.17
40946;BME280;55635;50.264;11.918;2024-01-15T07:22:19;94062.28;;;-1.34;92.72
40946;BME280;55635;50.264;11.918;2024-01-15T07:25:00;94056.13;;;-1.07;92.36
40946;BME280;55635;50.264;11.918;2024-01-15T07:27:42;94052.81;;;-0.92;91.52
40946;BME280;55635;50.264;11.918;2024-01-15T07:30:25;94058.63;;;-0.98;91.54
40946;BME280;55635;50.264;11.918;2024-01-15T07:33:06;94045.56;;;-1.06;91.44
40946;BME280;55635;50.264;11.918;2024-01-15T07:35:47;94054.53;;;-1.00;91.52
40946;BME280;55635;50.264;11.918;2024-01-15T07:38:28;94054.41;;;-0.91;91.11
40946;BME280;55635;50.264;11.918;2024-01-15T07:41:10;94062.22;;;-0.57;89.88
40946;BME280;55635;50.264;11.918;2024-01-15T07:43:51;94052.53;;;-0.81;90.35
40946;BME280;55635;50.264;11.918;2024-01-15T07:46:32;94055.47;;;-0.76;90.76
40946;BME280;55635;50.264;11.918;2024-01-15T07:49:13;94060.06;;;-0.70;91.01
40946;BME280;55635;50.264;11.918;2024-01-15T07:51:54;94057.56;;;-0.79;91.89
40946;BME280;55635;50.264;11.918;2024-01-15T07:54:35;94044.91;;;-1.08;93.00
40946;BME280;55635;50.264;11.918;2024-01-15T07:57:16;94044.31;;;-1.02;93.18
40946;BME280;55635;50.264;11.918;2024-01-15T07:59:57;94052.88;;;-0.76;92.58
40946;BME280;55635;50.264;11.918;2024-01-15T08:02:38;94049.91;;;-0.89;92.97
40946;BME280;55635;50.264;11.918;2024-01-15T08:05:20;94059.44;;;-0.64;92.74
40946;BME280;55635;50.264;11.918;2024-01-15T08:08:01;94062.00;;;-0.72;92.37
40946;BME280;55635;50.264;11.918;2024-01-15T08:10:42;94050.81;;;-0.64;91.75
40946;BME280;55635;50.264;11.918;2024-01-15T08:13:26;94027.75;;;-1.01;92.36
40946;BME280;55635;50.264;11.918;2024-01-15T08:16:08;94047.41;;;-0.65;91.45
40946;BME280;55635;50.264;11.918;2024-01-15T08:18:50;94045.75;;;-0.74;91.32
40946;BME280;55635;50.264;11.918;2024-01-15T08:21:31;94038.66;;;-0.56;90.34
40946;BME280;55635;50.264;11.918;2024-01-15T08:24:14;94038.38;;;-0.44;89.88
40946;BME280;55635;50.264;11.918;2024-01-15T08:26:55;94026.53;;;-0.73;90.48
40946;BME280;55635;50.264;11.918;2024-01-15T08:29:36;94029.81;;;-0.71;91.11
40946;BME280;55635;50.264;11.918;2024-01-15T08:32:18;94041.06;;;-0.62;91.05
40946;BME280;55635;50.264;11.918;2024-01-15T08:34:58;94048.38;;;-0.66;91.47
40946;BME280;55635;50.264;11.918;2024-01-15T08:37:40;94046.94;;;-0.52;91.03
40946;BME280;55635;50.264;11.918;2024-01-15T08:40:21;94040.28;;;-0.55;90.95
40946;BME280;55635;50.264;11.918;2024-01-15T08:43:02;94036.19;;;-0.65;90.97
40946;BME280;55635;50.264;11.918;2024-01-15T08:45:43;94036.63;;;-0.70;91.77
40946;BME280;55635;50.264;11.918;2024-01-15T08:48:24;94035.38;;;-0.58;91.44
40946;BME280;55635;50.264;11.918;2024-01-15T08:51:07;94038.09;;;-0.75;92.03
40946;BME280;55635;50.264;11.918;2024-01-15T08:53:49;94045.53;;;-0.46;91.07
40946;BME280;55635;50.264;11.918;2024-01-15T08:56:30;94052.09;;;-0.26;90.20
40946;BME280;55635;50.264;11.918;2024-01-15T08:59:13;94021.16;;;-0.37;89.42
40946;BME280;55635;50.264;11.918;2024-01-15T09:01:55;94049.84;;;-0.13;89.52
40946;BME280;55635;50.264;11.918;2024-01-15T09:04:39;94046.22;;;-0.28;89.20
40946;BME280;55635;50.264;11.918;2024-01-15T09:07:20;94052.19;;;0.06;88.10
40946;BME280;55635;50.264;11.918;2024-01-15T09:10:01;94040.44;;;0.10;88.21
40946;BME280;55635;50.264;11.918;2024-01-15T09:12:43;94042.38;;;-0.08;88.10
40946;BME280;55635;50.264;11.918;2024-01-15T09:15:24;94029.88;;;0.12;87.91
40946;BME280;55635;50.264;11.918;2024-01-15T09:18:05;94037.78;;;-0.14;87.72
40946;BME280;55635;50.264;11.918;2024-01-15T09:20:48;94034.59;;;0.00;87.77
40946;BME280;55635;50.264;11.918;2024-01-15T09:23:29;94034.88;;;-0.03;87.71
40946;BME280;55635;50.264;11.918;2024-01-15T09:26:10;94036.66;;;-0.12;88.50
40946;BME280;55635;50.264;11.918;2024-01-15T09:28:52;94034.72;;;-0.10;88.26
40946;BME280;55635;50.264;11.918;2024-01-15T09:31:33;94032.13;;;0.07;87.61
40946;BME280;55635;50.264;11.918;2024-01-15T09:34:14;94026.09;;;-0.10;88.45
40946;BME280;55635;50.264;11.918;2024-01-15T09:36:55;94029.84;;;0.04;87.90
40946;BME280;55635;50.264;11.918;2024-01-15T09:39:36;94027.56;;;-0.08;88.08
40946;BME280;55635;50.264;11.918;2024-01-15T09:42:17;94020.72;;;-0.09;88.29
40946;BME280;55635;50.264;11.918;2024-01-15T09:44:59;93986.69;;;-0.73;88.38
40946;BME280;55635;50.264;11.918;2024-01-15T09:47:41;94017.41;;;-0.27;89.25
40946;BME280;55635;50.264;11.918;2024-01-15T09:50:22;94014.03;;;-0.11;88.07
40946;BME280;55635;50.264;11.918;2024-01-15T09:53:05;94028.72;;;0.06;87.74
40946;BME280;55635;50.264;11.918;2024-01-15T09:55:46;94014.94;;;-0.36;87.09
40946;BME280;55635;50.264;11.918;2024-01-15T09:58:31;94017.16;;;0.09;86.89
40946;BME280;55635;50.264;11.918;2024-01-15T10:01:12;94011.28;;;-0.10;87.15
40946;BME280;55635;50.264;11.918;2024-01-15T10:03:56;94003.00;;;0.03;86.72
40946;BME280;55635;50.264;11.918;2024-01-15T10:06:37;94000.41;;;0.11;87.36
40946;BME280;55635;50.264;11.918;2024-01-15T10:09:20;94004.16;;;0.09;86.98
40946;BME280;55635;50.264;11.918;2024-01-15T10:12:01;94008.56;;;0.24;86.73
40946;BME280;55635;50.264;11.918;2024-01-15T10:14:43;93993.03;;;0.07;86.48
40946;BME280;55635;50.264;11.918;2024-01-15T10:17:24;93986.38;;;-0.04;86.22
40946;BME280;55635;50.264;11.918;2024-01-15T10:20:11;94003.16;;;-0.07;87.21
40946;BME280;55635;50.264;11.918;2024-01-15T10:22:53;93993.22;;;0.05;86.71
40946;BME280;55635;50.264;11.918;2024-01-15T10:25:35;93981.19;;;0.12;86.25
40946;BME280;55635;50.264;11.918;2024-01-15T10:28:17;93994.34;;;0.43;86.10
40946;BME280;55635;50.264;11.918;2024-01-15T10:31:01;93974.00;;;0.54;84.10
40946;BME280;55635;50.264;11.918;2024-01-15T10:33:42;93995.34;;;0.58;84.79
40946;BME280;55635;50.264;11.918;2024-01-15T10:36:23;93984.09;;;0.49;84.65
40946;BME280;55635;50.264;11.918;2024-01-15T10:39:05;93986.53;;;0.35;85.26
40946;BME280;55635;50.264;11.918;2024-01-15T10:41:47;93974.66;;;0.16;85.35
40946;BME280;55635;50.264;11.918;2024-01-15T10:44:28;93981.31;;;0.43;84.39
40946;BME280;55635;50.264;11.918;2024-01-15T10:47:10;93972.53;;;0.44;84.25
40946;BME280;55635;50.264;11.918;2024-01-15T10:49:52;93978.22;;;0.55;84.14
40946;BME280;55635;50.264;11.918;2024-01-15T10:52:39;93980.00;;;0.47;84.93
40946;BME280;55635;50.264;11.918;2024-01-15T10:55:24;93985.56;;;0.52;84.94
40946;BME280;55635;50.264;11.918;2024-01-15T10:58:07;93966.84;;;0.24;85.44
40946;BME280;55635;50.264;11.918;2024-01-15T11:00:49;93968.66;;;0.24;85.24
40946;BME280;55635;50.264;11.918;2024-01-15T11:03:30;93973.03;;;0.39;84.94
40946;BME280;55635;50.264;11.918;2024-01-15T11:06:22;93972.38;;;0.29;84.46
40946;BME280;55635;50.264;11.918;2024-01-15T11:09:04;93967.66;;;0.33;84.13
40946;BME280;55635;50.264;11.918;2024-01-15T11:11:46;93965.53;;;0.36;83.99
40946;BME280;55635;50.264;11.918;2024-01-15T11:14:41;93976.44;;;0.48;84.68
40946;BME280;55635;50.264;11.918;2024-01-15T11:17:25;93974.00;;;0.38;84.40
40946;BME280;55635;50.264;11.918;2024-01-15T11:20:07;93978.88;;;0.58;83.91
40946;BME280;55635;50.264;11.918;2024-01-15T11:22:49;93966.84;;;0.48;83.60
40946;BME280;55635;50.264;11.918;2024-01-15T11:25:36;93955.44;;;0.17;84.74
40946;BME280;55635;50.264;11.918;2024-01-15T11:28:47;93966.84;;;0.48;84.79
40946;BME280;55635;50.264;11.918;2024-01-15T11:43:15;93961.31;;;0.35;84.76
40946;BME280;55635;50.264;11.918;2024-01-15T11:46:02;93961.28;;;0.51;84.53
40946;BME280;55635;50.264;11.918;2024-01-15T11:48:45;93949.88;;;0.52;84.79
40946;BME280;55635;50.264;11.918;2024-01-15T11:51:26;93941.13;;;0.13;86.15
40946;BME280;55635;50.264;11.918;2024-01-15T11:54:10;93939.81;;;0.17;85.86
40946;BME280;55635;50.264;11.918;2024-01-15T11:56:53;93915.84;;;0.38;85.23
40946;BME280;55635;50.264;11.918;2024-01-15T11:59:35;93931.84;;;0.27;86.32
40946;BME280;55635;50.264;11.918;2024-01-15T12:02:17;93929.38;;;0.25;86.13
40946;BME280;55635;50.264;11.918;2024-01-15T12:04:58;93932.94;;;0.40;85.79
40946;BME280;55635;50.264;11.918;2024-01-15T12:07:40;93934.56;;;0.41;85.74
40946;BME280;55635;50.264;11.918;2024-01-15T12:10:22;93920.88;;;0.47;85.06
40946;BME280;55635;50.264;11.918;2024-01-15T12:13:14;93937.16;;;0.49;85.36
40946;BME280;55635;50.264;11.918;2024-01-15T12:15:56;93933.13;;;0.31;86.41
40946;BME280;55635;50.264;11.918;2024-01-15T12:18:37;93926.47;;;0.20;86.36
40946;BME280;55635;50.264;11.918;2024-01-15T12:21:18;93936.53;;;0.31;86.19
40946;BME280;55635;50.264;11.918;2024-01-15T12:24:00;93943.53;;;0.47;85.88
40946;BME280;55635;50.264;11.918;2024-01-15T12:26:41;93943.69;;;0.53;85.52
40946;BME280;55635;50.264;11.918;2024-01-15T12:29:23;93934.13;;;0.30;86.63
40946;BME280;55635;50.264;11.918;2024-01-15T12:32:05;93925.31;;;0.39;85.96
40946;BME280;55635;50.264;11.918;2024-01-15T12:34:46;93930.66;;;0.45;86.80
40946;BME280;55635;50.264;11.918;2024-01-15T12:37:27;93932.94;;;0.48;86.19
40946;BME280;55635;50.264;11.918;2024-01-15T12:40:10;93933.88;;;0.55;86.31
40946;BME280;55635;50.264;11.918;2024-01-15T12:42:51;93927.09;;;0.22;87.09
40946;BME280;55635;50.264;11.918;2024-01-15T12:45:33;93928.09;;;-0.19;88.40
40946;BME280;55635;50.264;11.918;2024-01-15T12:48:15;93926.13;;;0.23;88.23
40946;BME280;55635;50.264;11.918;2024-01-15T12:50:58;93930.84;;;0.28;88.34
40946;BME280;55635;50.264;11.918;2024-01-15T12:53:39;93924.34;;;0.08;89.02
40946;BME280;55635;50.264;11.918;2024-01-15T12:56:20;93926.78;;;0.33;88.52
40946;BME280;55635;50.264;11.918;2024-01-15T12:59:01;93932.97;;;0.32;88.18
40946;BME280;55635;50.264;11.918;2024-01-15T13:01:43;93928.53;;;0.57;86.97
40946;BME280;55635;50.264;11.918;2024-01-15T13:04:25;93929.06;;;0.20;88.00
40946;BME280;55635;50.264;11.918;2024-01-15T13:07:06;93923.06;;;-0.05;89.88
40946;BME280;55635;50.264;11.918;2024-01-15T13:09:48;93923.88;;;0.12;90.13
40946;BME280;55635;50.264;11.918;2024-01-15T13:12:34;93921.09;;;0.14;89.48
40946;BME280;55635;50.264;11.918;2024-01-15T13:15:15;93921.59;;;0.01;89.81
40946;BME280;55635;50.264;11.918;2024-01-15T13:17:57;93909.06;;;-0.12;90.93
40946;BME280;55635;50.264;11.918;2024-01-15T13:20:38;93902.88;;;-0.03;90.80
40946;BME280;55635;50.264;11.918;2024-01-15T13:23:19;93911.16;;;0.17;90.08
40946;BME280;55635;50.264;11.918;2024-01-15T13:26:01;93913.47;;;0.12;90.27
40946;BME280;55635;50.264;11.918;2024-01-15T13:28:42;93908.53;;;0.33;89.83
40946;BME280;55635;50.264;11.918;2024-01-15T13:31:23;93903.66;;;0.22;89.21
40946;BME280;55635;50.264;11.918;2024-01-15T13:34:04;93918.47;;;0.30;89.23
40946;BME280;55635;50.264;11.918;2024-01-15T13:36:45;93911.44;;;0.46;88.53
40946;BME280;55635;50.264;11.918;2024-01-15T13:39:26;93917.31;;;0.40;88.71
40946;BME280;55635;50.264;11.918;2024-01-15T13:42:07;93913.72;;;0.41;88.60
40946;BME280;55635;50.264;11.918;2024-01-15T13:44:48;93919.91;;;0.48;88.71
40946;BME280;55635;50.264;11.918;2024-01-15T13:47:30;93913.38;;;0.61;88.03
40946;BME280;55635;50.264;11.918;2024-01-15T13:50:11;93894.34;;;0.52;88.05
40946;BME280;55635;50.264;11.918;2024-01-15T13:52:53;93915.78;;;0.62;87.38
40946;BME280;55635;50.264;11.918;2024-01-15T13:55:33;93928.59;;;0.80;87.11
40946;BME280;55635;50.264;11.918;2024-01-15T13:58:15;93922.34;;;0.58;87.38
40946;BME280;55635;50.264;11.918;2024-01-15T14:00:57;93920.34;;;0.68;87.59
40946;BME280;55635;50.264;11.918;2024-01-15T14:03:38;93928.94;;;0.85;86.68
40946;BME280;55635;50.264;11.918;2024-01-15T14:06:19;93917.16;;;0.89;86.48
40946;BME280;55635;50.264;11.918;2024-01-15T14:09:01;93911.16;;;0.88;86.32
40946;BME280;55635;50.264;11.918;2024-01-15T14:11:41;93922.38;;;0.97;85.82
40946;BME280;55635;50.264;11.918;2024-01-15T14:14:23;93928.25;;;0.91;86.10
40946;BME280;55635;50.264;11.918;2024-01-15T14:17:04;93909.31;;;0.97;85.58
40946;BME280;55635;50.264;11.918;2024-01-15T14:19:45;93930.47;;;1.10;85.61